createdAt,value
2022-10-31T00:01:15.358Z,98650.66
2022-10-31T00:03:42.338Z,98648.62
2022-10-31T00:06:09.232Z,98653.56
2022-10-31T00:08:36.238Z,98644.94
2022-10-31T00:11:03.158Z,98638.69
2022-10-31T00:13:30.221Z,98642.81
2022-10-31T00:15:57.086Z,98648.59
2022-10-31T00:18:23.939Z,98653.38
2022-10-31T00:20:52.791Z,98660.69
2022-10-31T00:23:19.657Z,98654.03
2022-10-31T00:25:46.485Z,98649.75
2022-10-31T00:28:13.455Z,98650.38
2022-10-31T00:30:40.377Z,98652.25
2022-10-31T00:33:07.425Z,98655.25
2022-10-31T00:35:34.310Z,98657.19
2022-10-31T00:38:01.158Z,98657.38
2022-10-31T00:40:28.108Z,98659.31
2022-10-31T00:42:54.998Z,98658.87
2022-10-31T00:45:21.918Z,98650.78
2022-10-31T00:47:48.836Z,98648.22
2022-10-31T00:50:15.803Z,98661.09
2022-10-31T00:52:42.640Z,98653.81
2022-10-31T00:55:09.549Z,98652.78
2022-10-31T00:57:36.403Z,98654.31
2022-10-31T01:00:04.059Z,98656.16
2022-10-31T01:02:30.991Z,98660.81
2022-10-31T01:04:57.979Z,98649.16
2022-10-31T01:07:24.826Z,98648.50
2022-10-31T01:09:51.695Z,98651.00
2022-10-31T01:12:18.522Z,98646.56
2022-10-31T01:14:46.389Z,98653.25
2022-10-31T01:17:14.501Z,98647.69
2022-10-31T01:19:41.408Z,98645.00
2022-10-31T01:22:08.256Z,98640.19
2022-10-31T01:24:35.139Z,98630.94
2022-10-31T01:27:01.956Z,98637.37
2022-10-31T01:29:28.870Z,98637.37
2022-10-31T01:31:55.795Z,98631.00
2022-10-31T01:34:22.616Z,98627.34
2022-10-31T01:36:52.480Z,98626.03
2022-10-31T01:39:23.378Z,98624.75
2022-10-31T01:41:52.898Z,98630.53
2022-10-31T01:44:19.694Z,98625.03
2022-10-31T01:47:07.796Z,98627.09
2022-10-31T01:49:41.824Z,98616.09
2022-10-31T01:52:38.934Z,98620.31
2022-10-31T01:55:30.312Z,98611.41
2022-10-31T01:58:01.578Z,98612.78
2022-10-31T02:00:29.165Z,98614.25
2022-10-31T02:02:57.417Z,98617.53
2022-10-31T02:05:26.581Z,98611.72
2022-10-31T02:08:04.052Z,98618.00
2022-10-31T02:10:33.409Z,98606.47
2022-10-31T02:13:03.563Z,98605.75
2022-10-31T02:15:32.203Z,98605.66
2022-10-31T02:17:59.804Z,98603.97
2022-10-31T02:20:31.072Z,98608.69
2022-10-31T02:23:06.896Z,98605.22
2022-10-31T02:25:53.245Z,98596.06
2022-10-31T02:28:32.407Z,98587.62
2022-10-31T02:31:58.986Z,98587.91
2022-10-31T02:34:38.041Z,98584.06
2022-10-31T02:37:14.912Z,98579.91
2022-10-31T02:39:51.400Z,98587.44
2022-10-31T02:42:42.731Z,98593.28
2022-10-31T02:45:14.419Z,98592.75
2022-10-31T02:47:43.106Z,98599.41
2022-10-31T02:50:26.917Z,98601.41
2022-10-31T02:52:54.698Z,98595.62
2022-10-31T02:55:24.325Z,98597.81
2022-10-31T02:57:55.895Z,98605.81
2022-10-31T03:00:22.973Z,98603.12
2022-10-31T03:03:04.648Z,98607.81
2022-10-31T03:06:00.283Z,98601.41
2022-10-31T03:08:59.151Z,98610.81
2022-10-31T03:11:31.013Z,98609.09
2022-10-31T03:13:59.324Z,98613.97
2022-10-31T03:16:44.866Z,98612.84
2022-10-31T03:19:28.064Z,98611.09
2022-10-31T03:22:17.647Z,98619.94
2022-10-31T03:24:44.897Z,98617.44
2022-10-31T03:27:14.495Z,98619.44
2022-10-31T03:29:41.909Z,98610.94
2022-10-31T03:32:12.277Z,98617.31
2022-10-31T03:34:41.475Z,98620.25
2022-10-31T03:37:12.240Z,98623.63
2022-10-31T03:39:40.402Z,98629.13
2022-10-31T03:42:10.838Z,98622.88
2022-10-31T03:44:39.796Z,98606.97
2022-10-31T03:47:06.753Z,98618.06
2022-10-31T03:49:34.140Z,98618.41
2022-10-31T03:52:30.368Z,98613.03
2022-10-31T03:55:32.831Z,98622.09
2022-10-31T03:58:14.699Z,98619.75
2022-10-31T04:00:43.765Z,98611.81
2022-10-31T04:03:27.007Z,98613.37
2022-10-31T04:05:56.581Z,98609.31
2022-10-31T04:08:27.898Z,98609.66
2022-10-31T04:10:55.812Z,98608.59
2022-10-31T04:13:27.195Z,98612.59
2022-10-31T04:15:55.557Z,98611.81
2022-10-31T04:18:24.203Z,98615.97
2022-10-31T04:21:01.080Z,98612.56
2022-10-31T04:23:28.604Z,98619.53
2022-10-31T04:25:55.493Z,98620.75
2022-10-31T04:28:22.376Z,98614.13
2022-10-31T04:30:49.387Z,98608.84
2022-10-31T04:33:16.404Z,98618.72
2022-10-31T04:35:43.269Z,98616.75
2022-10-31T04:38:10.174Z,98613.31
2022-10-31T04:40:36.995Z,98611.47
2022-10-31T04:43:04.307Z,98610.25
2022-10-31T04:45:31.311Z,98614.06
2022-10-31T04:47:58.540Z,98616.81
2022-10-31T04:50:25.659Z,98617.56
2022-10-31T04:52:52.530Z,98622.28
2022-10-31T04:55:19.375Z,98617.09
2022-10-31T04:57:48.018Z,98627.47
2022-10-31T05:00:16.934Z,98619.38
2022-10-31T05:02:50.356Z,98626.25
2022-10-31T05:05:18.996Z,98625.00
2022-10-31T05:07:47.557Z,98621.50
2022-10-31T05:10:17.353Z,98625.50
2022-10-31T05:12:49.177Z,98624.59
2022-10-31T05:15:16.780Z,98626.47
2022-10-31T05:17:43.970Z,98619.97
2022-10-31T05:20:12.595Z,98622.78
2022-10-31T05:22:46.238Z,98623.19
2022-10-31T05:25:13.353Z,98626.59
2022-10-31T05:27:44.177Z,98618.78
2022-10-31T05:30:12.466Z,98623.31
2022-10-31T05:32:43.940Z,98619.41
2022-10-31T05:35:16.442Z,98626.47
2022-10-31T05:37:43.276Z,98626.72
2022-10-31T05:40:12.004Z,98629.59
2022-10-31T05:42:42.782Z,98628.28
2022-10-31T05:45:11.478Z,98637.50
2022-10-31T05:47:38.385Z,98644.16
2022-10-31T05:50:05.856Z,98645.97
2022-10-31T05:52:32.983Z,98657.22
2022-10-31T05:54:59.847Z,98657.97
2022-10-31T05:57:26.767Z,98659.69
2022-10-31T05:59:56.573Z,98656.03
2022-10-31T06:02:23.409Z,98658.50
2022-10-31T06:04:50.331Z,98664.75
2022-10-31T06:07:17.238Z,98668.28
2022-10-31T06:09:44.129Z,98674.41
2022-10-31T06:12:11.057Z,98672.97
2022-10-31T06:14:37.917Z,98686.09
2022-10-31T06:17:04.773Z,98681.81
2022-10-31T06:19:31.705Z,98684.31
2022-10-31T06:21:58.526Z,98687.75
2022-10-31T06:24:25.361Z,98685.09
2022-10-31T06:26:52.251Z,98684.94
2022-10-31T06:29:19.117Z,98685.69
2022-10-31T06:31:45.930Z,98687.50
2022-10-31T06:34:12.800Z,98693.53
2022-10-31T06:36:39.637Z,98694.09
2022-10-31T06:39:06.518Z,98692.59
2022-10-31T06:41:33.379Z,98700.50
2022-10-31T06:44:04.882Z,98700.91
2022-10-31T06:46:34.951Z,98694.94
2022-10-31T06:49:01.900Z,98703.91
2022-10-31T06:51:28.780Z,98701.72
2022-10-31T06:53:55.608Z,98698.75
2022-10-31T06:56:22.461Z,98710.22
2022-10-31T06:58:49.371Z,98704.25
2022-10-31T07:01:16.310Z,98707.59
2022-10-31T07:03:43.239Z,98703.69
2022-10-31T07:06:10.120Z,98715.94
2022-10-31T07:08:36.999Z,98715.56
2022-10-31T07:11:03.892Z,98722.41
2022-10-31T07:13:30.794Z,98719.63
2022-10-31T07:16:02.370Z,98714.25
2022-10-31T07:18:29.464Z,98716.97
2022-10-31T07:20:56.361Z,98722.94
2022-10-31T07:23:23.568Z,98719.00
2022-10-31T07:25:56.334Z,98723.88
2022-10-31T07:28:23.703Z,98720.50
2022-10-31T07:30:52.285Z,98729.78
2022-10-31T07:33:19.199Z,98724.78
2022-10-31T07:35:46.362Z,98723.75
2022-10-31T07:38:14.679Z,98720.91
2022-10-31T07:40:42.730Z,98723.53
2022-10-31T07:43:13.964Z,98716.75
2022-10-31T07:45:42.029Z,98720.28
2022-10-31T07:48:08.909Z,98724.81
2022-10-31T07:50:35.891Z,98720.37
2022-10-31T07:53:05.488Z,98719.69
2022-10-31T07:55:33.050Z,98719.81
2022-10-31T07:58:05.638Z,98715.53
2022-10-31T08:00:34.118Z,98718.22
2022-10-31T08:03:11.978Z,98717.41
2022-10-31T08:05:39.382Z,98725.59
2022-10-31T08:08:06.783Z,98724.38
2022-10-31T08:10:34.534Z,98722.56
2022-10-31T08:13:10.029Z,98723.03
2022-10-31T08:15:39.389Z,98715.94
2022-10-31T08:18:16.028Z,98722.53
2022-10-31T08:20:45.844Z,98733.72
2022-10-31T08:23:13.641Z,98721.81
2022-10-31T08:25:40.775Z,98724.41
2022-10-31T08:28:08.137Z,98714.59
2022-10-31T08:30:37.249Z,98715.28
2022-10-31T08:33:15.185Z,98722.78
2022-10-31T08:35:42.205Z,98715.59
2022-10-31T08:38:11.343Z,98720.16
2022-10-31T08:40:38.774Z,98718.31
2022-10-31T08:43:16.731Z,98721.22
2022-10-31T08:45:44.576Z,98721.37
2022-10-31T08:48:16.864Z,98718.38
2022-10-31T08:50:45.255Z,98716.47
2022-10-31T08:53:19.277Z,98715.06
2022-10-31T08:55:47.358Z,98715.69
2022-10-31T08:58:17.138Z,98715.13
2022-10-31T09:00:44.767Z,98719.94
2022-10-31T09:03:19.831Z,98721.72
2022-10-31T09:05:47.013Z,98718.03
2022-10-31T09:08:16.665Z,98722.22
2022-10-31T09:10:44.188Z,98725.22
2022-10-31T09:13:15.317Z,98722.81
2022-10-31T09:15:44.938Z,98724.09
2022-10-31T09:18:12.707Z,98724.00
2022-10-31T09:20:40.849Z,98719.47
2022-10-31T09:23:11.325Z,98721.94
2022-10-31T09:25:38.637Z,98721.91
2022-10-31T09:28:06.781Z,98719.31
2022-10-31T09:30:35.247Z,98720.63
2022-10-31T09:33:11.252Z,98725.16
2022-10-31T09:35:38.740Z,98724.50
2022-10-31T09:38:07.807Z,98733.63
2022-10-31T09:40:45.596Z,98722.19
2022-10-31T09:43:34.484Z,98724.91
2022-10-31T09:46:17.931Z,98729.94
2022-10-31T09:49:03.521Z,98727.47
2022-10-31T09:51:33.612Z,98728.66
2022-10-31T09:54:06.379Z,98731.75
2022-10-31T09:56:33.701Z,98725.00
2022-10-31T09:59:02.235Z,98726.47
2022-10-31T10:01:36.223Z,98724.00
2022-10-31T10:04:16.896Z,98719.16
2022-10-31T10:06:48.968Z,98724.03
2022-10-31T10:09:15.852Z,98722.81
2022-10-31T10:11:56.532Z,98724.53
2022-10-31T10:14:36.256Z,98713.37
2022-10-31T10:17:18.745Z,98725.16
2022-10-31T10:20:14.909Z,98721.28
2022-10-31T10:22:52.006Z,98721.63
2022-10-31T10:25:24.731Z,98727.69
2022-10-31T10:28:05.987Z,98722.97
2022-10-31T10:30:51.641Z,98724.72
2022-10-31T10:33:42.636Z,98724.00
2022-10-31T10:36:19.234Z,98716.50
2022-10-31T10:38:52.677Z,98714.69
2022-10-31T10:41:24.190Z,98724.38
2022-10-31T10:43:51.999Z,98722.59
2022-10-31T10:46:50.837Z,98724.38
2022-10-31T10:49:21.961Z,98713.53
2022-10-31T10:55:28.804Z,98721.19
2022-10-31T10:58:07.698Z,98711.06
2022-10-31T11:00:42.273Z,98712.97
2022-10-31T11:03:09.970Z,98711.50
2022-10-31T11:05:56.211Z,98714.88
2022-10-31T11:08:30.008Z,98712.44
2022-10-31T11:11:18.074Z,98707.31
2022-10-31T11:13:50.625Z,98703.34
2022-10-31T11:16:39.573Z,98704.38
2022-10-31T11:19:13.778Z,98694.91
2022-10-31T11:21:40.630Z,98702.78
2022-10-31T11:24:10.430Z,98707.41
2022-10-31T11:26:41.564Z,98699.78
2022-10-31T11:29:22.332Z,98694.38
2022-10-31T11:31:52.962Z,98695.34
2022-10-31T11:34:38.367Z,98692.25
2022-10-31T11:37:18.057Z,98698.37
2022-10-31T11:39:54.180Z,98688.69
2022-10-31T11:42:26.812Z,98699.16
2022-10-31T11:44:55.309Z,98690.59
2022-10-31T11:47:30.066Z,98685.34
2022-10-31T11:49:57.722Z,98688.69
2022-10-31T11:52:27.010Z,98674.31
2022-10-31T11:54:57.491Z,98675.94
2022-10-31T11:57:32.945Z,98671.75
2022-10-31T12:00:01.622Z,98679.72
2022-10-31T12:02:28.790Z,98674.22
2022-10-31T12:05:04.111Z,98677.78
2022-10-31T12:07:31.415Z,98676.03
2022-10-31T12:09:58.855Z,98681.47
2022-10-31T12:12:41.687Z,98675.41
2022-10-31T12:15:26.499Z,98680.44
2022-10-31T12:18:03.803Z,98671.22
2022-10-31T12:20:54.433Z,98675.81
2022-10-31T12:23:31.148Z,98673.97
2022-10-31T12:26:26.464Z,98676.38
2022-10-31T12:29:30.673Z,98670.19
2022-10-31T12:32:16.512Z,98672.34
2022-10-31T12:34:53.068Z,98666.84
2022-10-31T12:37:33.446Z,98668.69
2022-10-31T12:40:17.177Z,98663.22
2022-10-31T12:43:02.977Z,98665.72
2022-10-31T12:45:36.808Z,98667.28
2022-10-31T12:48:18.356Z,98664.19
2022-10-31T12:50:59.870Z,98657.97
2022-10-31T12:53:35.900Z,98656.72
2022-10-31T12:56:34.388Z,98651.25
2022-10-31T12:59:08.784Z,98653.44
2022-10-31T13:01:36.562Z,98651.00
2022-10-31T13:04:21.592Z,98645.37
2022-10-31T13:06:51.572Z,98651.25
2022-10-31T13:09:28.730Z,98654.47
2022-10-31T13:11:58.056Z,98649.06
2022-10-31T13:14:43.501Z,98650.91
2022-10-31T13:17:25.597Z,98647.78
2022-10-31T13:19:54.665Z,98643.00
2022-10-31T13:22:28.753Z,98648.81
2022-10-31T13:25:00.769Z,98642.94
2022-10-31T13:28:01.133Z,98641.66
2022-10-31T13:30:33.733Z,98640.97
2022-10-31T13:33:09.434Z,98641.25
2022-10-31T13:36:04.446Z,98642.72
2022-10-31T13:38:53.611Z,98647.28
2022-10-31T13:41:28.595Z,98644.69
2022-10-31T13:44:06.320Z,98642.88
2022-10-31T13:46:33.195Z,98644.94
2022-10-31T13:49:00.320Z,98647.72
2022-10-31T13:51:29.552Z,98644.37
2022-10-31T13:53:56.359Z,98643.19
2022-10-31T13:56:29.294Z,98644.59
2022-10-31T13:59:02.835Z,98642.03
2022-10-31T14:01:30.852Z,98640.19
2022-10-31T14:04:17.029Z,98640.56
2022-10-31T14:07:15.481Z,98639.47
2022-10-31T14:10:07.780Z,98643.25
2022-10-31T14:12:46.192Z,98641.22
2022-10-31T14:15:24.996Z,98645.28
2022-10-31T14:17:51.784Z,98641.28
2022-10-31T14:20:34.093Z,98644.44
2022-10-31T14:23:26.751Z,98646.19
2022-10-31T14:25:53.611Z,98646.84
2022-10-31T14:28:23.928Z,98634.50
2022-10-31T14:30:58.659Z,98641.72
2022-10-31T14:33:30.690Z,98638.56
2022-10-31T14:36:02.887Z,98639.34
2022-10-31T14:38:32.328Z,98642.59
2022-10-31T14:41:25.293Z,98642.75
2022-10-31T14:44:15.409Z,98631.19
2022-10-31T14:46:45.518Z,98633.53
2022-10-31T14:49:51.073Z,98637.25
2022-10-31T14:52:18.725Z,98632.53
2022-10-31T14:54:51.259Z,98627.75
2022-10-31T14:57:22.702Z,98638.13
2022-10-31T15:00:00.659Z,98629.94
2022-10-31T15:02:40.757Z,98641.03
2022-10-31T15:05:12.417Z,98639.59
2022-10-31T15:07:50.854Z,98635.75
2022-10-31T15:10:30.911Z,98623.78
2022-10-31T15:12:58.117Z,98624.62
2022-10-31T15:15:27.106Z,98626.69
2022-10-31T15:17:59.565Z,98632.97
2022-10-31T15:20:32.518Z,98635.00
2022-10-31T15:23:00.243Z,98631.31
2022-10-31T15:25:31.710Z,98636.25
2022-10-31T15:27:58.694Z,98629.59
2022-10-31T15:30:29.967Z,98631.47
2022-10-31T15:32:58.996Z,98633.34
2022-10-31T15:35:31.577Z,98632.22
2022-10-31T15:38:01.134Z,98636.13
2022-10-31T15:40:29.254Z,98637.94
2022-10-31T15:43:04.903Z,98639.09
2022-10-31T15:45:32.241Z,98632.22
2022-10-31T15:48:02.659Z,98633.78
2022-10-31T15:50:37.547Z,98630.41
2022-10-31T15:53:06.080Z,98640.88
2022-10-31T15:55:39.290Z,98646.88
2022-10-31T15:58:13.321Z,98638.13
2022-10-31T16:00:40.312Z,98641.03
2022-10-31T16:03:08.567Z,98647.03
2022-10-31T16:05:48.918Z,98641.38
2022-10-31T16:08:28.061Z,98640.41
2022-10-31T16:10:55.327Z,98646.22
2022-10-31T16:13:29.714Z,98646.00
2022-10-31T16:16:21.624Z,98647.06
2022-10-31T16:18:47.959Z,98652.47
2022-10-31T16:21:15.123Z,98649.06
2022-10-31T16:23:47.447Z,98653.72
2022-10-31T16:26:18.661Z,98651.94
2022-10-31T16:29:03.224Z,98646.66
2022-10-31T16:31:38.912Z,98651.63
2022-10-31T16:34:15.695Z,98653.06
2022-10-31T16:36:42.975Z,98656.88
2022-10-31T16:39:10.099Z,98666.13
2022-10-31T16:41:41.170Z,98658.13
2022-10-31T16:44:21.065Z,98661.53
2022-10-31T16:46:48.031Z,98663.56
2022-10-31T16:49:16.661Z,98666.78
2022-10-31T16:51:44.113Z,98668.38
2022-10-31T16:54:11.943Z,98665.66
2022-10-31T16:56:39.580Z,98675.09
2022-10-31T16:59:15.670Z,98679.81
2022-10-31T17:01:45.969Z,98670.66
2022-10-31T17:04:14.865Z,98677.16
2022-10-31T17:06:42.574Z,98678.44
2022-10-31T17:09:09.987Z,98677.91
2022-10-31T17:11:37.513Z,98676.06
2022-10-31T17:14:04.918Z,98682.22
2022-10-31T17:16:31.819Z,98685.53
2022-10-31T17:18:58.744Z,98689.34
2022-10-31T17:21:26.515Z,98688.47
2022-10-31T17:23:53.337Z,98684.03
2022-10-31T17:26:20.614Z,98683.44
2022-10-31T17:28:47.504Z,98681.75
2022-10-31T17:31:24.496Z,98679.09
2022-10-31T17:33:51.480Z,98680.50
2022-10-31T17:36:18.369Z,98682.44
2022-10-31T17:38:45.214Z,98680.44
2022-10-31T17:41:12.085Z,98677.88
2022-10-31T17:43:39.000Z,98682.22
2022-10-31T17:46:07.099Z,98679.88
2022-10-31T17:48:35.650Z,98680.72
2022-10-31T17:51:06.805Z,98678.38
2022-10-31T17:53:34.728Z,98685.72
2022-10-31T17:56:06.798Z,98679.47
2022-10-31T17:58:35.242Z,98677.03
2022-10-31T18:01:13.863Z,98684.19
2022-10-31T18:03:41.346Z,98678.22
2022-10-31T18:06:09.099Z,98683.53
2022-10-31T18:08:37.211Z,98685.28
2022-10-31T18:11:11.863Z,98675.22
2022-10-31T18:13:39.340Z,98674.69
2022-10-31T18:16:16.857Z,98678.97
2022-10-31T18:18:43.765Z,98676.06
2022-10-31T18:21:10.761Z,98678.12
2022-10-31T18:23:37.649Z,98677.75
2022-10-31T18:26:04.698Z,98682.66
2022-10-31T18:28:31.577Z,98672.63
2022-10-31T18:31:01.257Z,98686.53
2022-10-31T18:33:28.596Z,98682.31
2022-10-31T18:35:55.837Z,98680.25
2022-10-31T18:38:23.201Z,98676.16
2022-10-31T18:40:51.689Z,98676.84
2022-10-31T18:43:18.583Z,98673.38
2022-10-31T18:45:48.092Z,98680.50
2022-10-31T18:48:16.016Z,98681.91
2022-10-31T18:50:43.475Z,98677.84
2022-10-31T18:53:10.631Z,98683.22
2022-10-31T18:55:47.211Z,98681.97
2022-10-31T18:58:17.121Z,98685.28
2022-10-31T19:00:44.984Z,98675.41
2022-10-31T19:03:12.458Z,98677.84
2022-10-31T19:05:39.352Z,98677.47
2022-10-31T19:08:06.477Z,98679.66
2022-10-31T19:10:37.666Z,98681.44
2022-10-31T19:13:05.364Z,98683.88
2022-10-31T19:15:34.522Z,98680.66
2022-10-31T19:18:01.394Z,98678.66
2022-10-31T19:20:28.275Z,98679.25
2022-10-31T19:22:55.095Z,98673.84
2022-10-31T19:25:22.071Z,98682.34
2022-10-31T19:27:48.985Z,98686.62
2022-10-31T19:30:16.168Z,98682.00
2022-10-31T19:32:43.027Z,98686.53
2022-10-31T19:35:11.159Z,98681.81
2022-10-31T19:37:39.799Z,98683.53
2022-10-31T19:40:09.006Z,98680.53
2022-10-31T19:42:35.932Z,98677.84
2022-10-31T19:45:03.837Z,98683.69
2022-10-31T19:47:30.926Z,98682.19
2022-10-31T19:49:57.797Z,98683.19
2022-10-31T19:52:24.695Z,98674.41
2022-10-31T19:54:51.524Z,98675.78
2022-10-31T19:57:20.591Z,98679.59
2022-10-31T19:59:53.537Z,98683.66
2022-10-31T20:02:21.187Z,98680.81
2022-10-31T20:04:48.037Z,98676.97
2022-10-31T20:07:14.865Z,98683.34
2022-10-31T20:09:41.735Z,98683.34
2022-10-31T20:12:08.614Z,98680.34
2022-10-31T20:14:35.568Z,98685.28
2022-10-31T20:17:02.428Z,98685.00
2022-10-31T20:19:29.342Z,98682.81
2022-10-31T20:21:56.331Z,98686.03
2022-10-31T20:24:23.173Z,98687.47
2022-10-31T20:26:50.055Z,98679.47
2022-10-31T20:29:16.969Z,98683.47
2022-10-31T20:31:45.896Z,98687.59
2022-10-31T20:34:13.446Z,98690.28
2022-10-31T20:36:40.326Z,98683.75
2022-10-31T20:39:07.145Z,98688.34
2022-10-31T20:41:36.823Z,98691.66
2022-10-31T20:44:03.776Z,98684.31
2022-10-31T20:46:31.259Z,98686.00
2022-10-31T20:48:58.237Z,98689.56
2022-10-31T20:51:31.920Z,98682.91
2022-10-31T20:53:59.978Z,98685.16
2022-10-31T20:56:28.179Z,98687.19
2022-10-31T20:58:56.277Z,98685.09
2022-10-31T21:01:27.968Z,98687.09
2022-10-31T21:03:55.161Z,98679.03
2022-10-31T21:06:23.479Z,98679.62
2022-10-31T21:08:51.197Z,98679.28
2022-10-31T21:11:21.402Z,98684.69
2022-10-31T21:13:49.689Z,98678.56
2022-10-31T21:16:22.396Z,98681.47
2022-10-31T21:18:49.910Z,98681.38
2022-10-31T21:21:27.620Z,98686.78
2022-10-31T21:24:01.964Z,98679.09
2022-10-31T21:26:30.319Z,98679.31
2022-10-31T21:28:58.759Z,98672.97
2022-10-31T21:31:26.069Z,98676.53
2022-10-31T21:33:52.897Z,98677.28
2022-10-31T21:36:19.780Z,98676.28
2022-10-31T21:38:53.181Z,98675.44
2022-10-31T21:41:20.664Z,98666.72
2022-10-31T21:43:48.744Z,98666.13
2022-10-31T21:46:18.411Z,98664.53
2022-10-31T21:48:46.226Z,98662.88
2022-10-31T21:51:20.025Z,98660.53
2022-10-31T21:54:05.540Z,98664.72
2022-10-31T21:56:32.901Z,98657.44
2022-10-31T21:58:59.986Z,98654.69
2022-10-31T22:01:28.594Z,98662.69
2022-10-31T22:03:56.325Z,98661.47
2022-10-31T22:06:23.341Z,98663.69
2022-10-31T22:08:50.191Z,98661.75
2022-10-31T22:11:18.439Z,98656.47
2022-10-31T22:13:47.590Z,98665.78
2022-10-31T22:16:17.000Z,98656.50
2022-10-31T22:18:44.438Z,98656.91
2022-10-31T22:21:13.867Z,98653.97
2022-10-31T22:23:40.850Z,98654.13
2022-10-31T22:26:16.385Z,98658.06
2022-10-31T22:28:50.119Z,98647.94
2022-10-31T22:31:19.363Z,98649.56
2022-10-31T22:33:47.011Z,98650.50
2022-10-31T22:36:17.090Z,98647.72
2022-10-31T22:38:44.684Z,98647.50
2022-10-31T22:41:16.883Z,98655.66
2022-10-31T22:43:43.858Z,98654.00
2022-10-31T22:46:12.962Z,98654.22
2022-10-31T22:48:42.865Z,98647.44
2022-10-31T22:51:12.369Z,98658.84
2022-10-31T22:53:39.927Z,98656.56
2022-10-31T22:56:08.409Z,98660.09
2022-10-31T22:58:35.427Z,98658.28
2022-10-31T23:01:13.718Z,98658.97
2022-10-31T23:03:40.871Z,98655.06
2022-10-31T23:06:10.046Z,98657.56
2022-10-31T23:08:38.380Z,98655.50
2022-10-31T23:11:15.393Z,98651.84
2022-10-31T23:14:00.883Z,98645.59
2022-10-31T23:16:27.840Z,98651.41
2022-10-31T23:18:54.671Z,98646.00
2022-10-31T23:21:40.272Z,98637.69
2022-10-31T23:24:07.244Z,98640.38
2022-10-31T23:26:52.691Z,98635.03
2022-10-31T23:29:19.604Z,98637.09
2022-10-31T23:31:48.076Z,98630.59
2022-10-31T23:34:14.901Z,98636.00
2022-10-31T23:36:41.736Z,98633.03
2022-10-31T23:39:08.668Z,98636.31
2022-10-31T23:41:36.502Z,98626.16
2022-10-31T23:44:03.423Z,98615.16
2022-10-31T23:46:30.318Z,98617.12
2022-10-31T23:48:57.235Z,98621.41
2022-10-31T23:51:24.065Z,98616.91
2022-10-31T23:53:50.925Z,98613.97
2022-10-31T23:56:17.810Z,98612.13
2022-10-31T23:58:44.657Z,98608.75
